Airfield :
LOGIN :

Register | Disclaimer

   EN    FR    IT 

 










Legend :    VFR   Marginal VFR   IFR   Intensive IFR   Very Intensive IFR
Visi :
Ceiling :
>= 8 km
>= 3000ft
5 to 8 km
1000 to 3000 ft
1500m to 5 km
500 to 1000 ft
800 to 1500m
200 to 500 ft
< 800m
< 200 ft
Symbols :   Thunderstorms  Fog  Heavy snow  Heavy precipitations  Wind > 20 kt
SIGMETs :     Misc.  Thunderstorms  Icing  Turbulence  Mountain Waves  Volcanic Ashes






- Airport Elevation : 1276 ft
- IATA code : STR


EDDS - Stuttgart

CURRENT METAR :
  • 280150Z AUTO 28006KT 9999 BKN044 11/09 Q1020

EXPIRED METARs :
  • 280120Z AUTO 29005KT 9999 FEW028 11/10 Q1021
  • 280050Z AUTO 30007KT 9999 -RADZ FEW027 BKN041 BKN048 11/09 Q1021 RERA
  • 280020Z AUTO 33003KT 290V040 9999 -RA FEW027 BKN038 12/10 Q1021 RESHRA
  • 272350Z AUTO 32008KT 290V350 9999 -SHRA FEW023 FEW///TCU 13/09 Q1021 RESHRA
  • 272320Z AUTO 26008KT 9999 FEW035 13/09 Q1021

TAF TAF EDDS
Valid from the 28 at 00:00 until the 29 at 00:00 UTC


272300Z 2800/2824 27006KT 9999 FEW045
PROB30
TEMPO 2800/2801 SHRA BKN030CB
BECMG 2806/2808 33007KT
PROB30
TEMPO 2815/2819 34015G25KT SHRA BKN025TCU
BECMG 2819/2821 VRB03KT



MET'MAP, your aeronautical weather chart ! - Copyright ORBIFLY December 2007 - Disclaimer

ORBIFLY MET'MAP TEAM :

Programming & Development : Alexandra Zaïnal
Original concept : Baudouin d'Aumeries
Technical & hardware support : Manuel Goepfert
Assistance : Marc-Olivier Méhu

Contact : metmap@orbifly.com




SOURCES & CREDITS :

   NOAA